sensor_id;sensor_type;location;lat;lon;timestamp;pressure;altitude;pressure_sealevel;temperature;humidity
41062;BME280;26812;42.662;23.352;2023-06-22T00:01:54;95331.81;;;20.41;72.60
41062;BME280;26812;42.662;23.352;2023-06-22T00:04:19;95330.84;;;20.04;73.92
41062;BME280;26812;42.662;23.352;2023-06-22T00:06:45;95340.66;;;20.08;74.05
41062;BME280;26812;42.662;23.352;2023-06-22T00:09:10;95328.47;;;20.02;74.02
41062;BME280;26812;42.662;23.352;2023-06-22T00:11:38;95349.03;;;19.93;74.80
41062;BME280;26812;42.662;23.352;2023-06-22T00:14:04;95334.94;;;19.68;75.52
41062;BME280;26812;42.662;23.352;2023-06-22T00:16:32;95348.97;;;19.66;76.10
41062;BME280;26812;42.662;23.352;2023-06-22T00:18:58;95345.38;;;19.62;76.56
41062;BME280;26812;42.662;23.352;2023-06-22T00:21:26;95342.94;;;20.03;74.51
41062;BME280;26812;42.662;23.352;2023-06-22T00:23:51;95321.84;;;20.03;73.78
41062;BME280;26812;42.662;23.352;2023-06-22T00:26:17;95314.28;;;19.70;75.52
41062;BME280;26812;42.662;23.352;2023-06-22T00:28:42;95325.44;;;19.84;74.99
41062;BME280;26812;42.662;23.352;2023-06-22T00:31:07;95315.53;;;19.76;74.99
41062;BME280;26812;42.662;23.352;2023-06-22T00:33:33;95305.66;;;19.68;74.72
41062;BME280;26812;42.662;23.352;2023-06-22T00:35:58;95316.09;;;19.63;75.68
41062;BME280;26812;42.662;23.352;2023-06-22T00:38:23;95320.91;;;19.50;76.45
41062;BME280;26812;42.662;23.352;2023-06-22T00:40:49;95315.97;;;19.78;75.11
41062;BME280;26812;42.662;23.352;2023-06-22T00:43:14;95314.81;;;19.57;75.70
41062;BME280;26812;42.662;23.352;2023-06-22T00:45:40;95306.41;;;19.46;76.08
41062;BME280;26812;42.662;23.352;2023-06-22T00:48:06;95305.53;;;19.61;75.32
41062;BME280;26812;42.662;23.352;2023-06-22T00:50:33;95311.59;;;19.74;74.58
41062;BME280;26812;42.662;23.352;2023-06-22T00:53:05;95312.88;;;19.80;73.51
41062;BME280;26812;42.662;23.352;2023-06-22T00:55:41;95327.09;;;19.66;74.60
41062;BME280;26812;42.662;23.352;2023-06-22T00:58:08;95324.97;;;19.79;74.12
41062;BME280;26812;42.662;23.352;2023-06-22T01:00:36;95314.22;;;19.67;73.54
41062;BME280;26812;42.662;23.352;2023-06-22T01:03:02;95306.88;;;19.71;74.65
41062;BME280;26812;42.662;23.352;2023-06-22T01:05:28;95326.13;;;19.78;73.33
41062;BME280;26812;42.662;23.352;2023-06-22T01:11:17;95329.25;;;19.57;74.60
41062;BME280;26812;42.662;23.352;2023-06-22T01:14:53;95306.41;;;19.46;74.93
41062;BME280;26812;42.662;23.352;2023-06-22T01:16:48;95333.88;;;19.53;75.02
41062;BME280;26812;42.662;23.352;2023-06-22T01:21:43;95323.38;;;19.55;74.41
41062;BME280;26812;42.662;23.352;2023-06-22T01:24:26;95326.38;;;19.69;74.16
41062;BME280;26812;42.662;23.352;2023-06-22T01:29:52;95335.28;;;19.66;70.94
41062;BME280;26812;42.662;23.352;2023-06-22T01:32:29;95342.47;;;19.74;71.89
41062;BME280;26812;42.662;23.352;2023-06-22T01:34:57;95342.81;;;19.73;72.61
41062;BME280;26812;42.662;23.352;2023-06-22T01:37:25;95330.56;;;19.44;72.81
41062;BME280;26812;42.662;23.352;2023-06-22T01:39:51;95332.13;;;19.64;72.58
41062;BME280;26812;42.662;23.352;2023-06-22T01:42:17;95329.47;;;19.48;72.86
41062;BME280;26812;42.662;23.352;2023-06-22T01:44:43;95343.38;;;19.40;73.34
41062;BME280;26812;42.662;23.352;2023-06-22T01:47:09;95331.81;;;19.27;73.68
41062;BME280;26812;42.662;23.352;2023-06-22T01:49:34;95338.78;;;19.44;73.55
41062;BME280;26812;42.662;23.352;2023-06-22T01:52:00;95343.19;;;19.29;73.98
41062;BME280;26812;42.662;23.352;2023-06-22T01:54:25;95339.66;;;19.29;73.91
41062;BME280;26812;42.662;23.352;2023-06-22T01:56:50;95337.97;;;19.43;73.12
41062;BME280;26812;42.662;23.352;2023-06-22T01:59:29;95356.44;;;19.50;72.56
41062;BME280;26812;42.662;23.352;2023-06-22T02:02:09;95362.69;;;19.70;71.64
41062;BME280;26812;42.662;23.352;2023-06-22T02:04:46;95360.19;;;19.61;72.06
41062;BME280;26812;42.662;23.352;2023-06-22T02:07:15;95350.34;;;19.57;72.86
41062;BME280;26812;42.662;23.352;2023-06-22T02:09:46;95345.88;;;19.48;72.67
41062;BME280;26812;42.662;23.352;2023-06-22T02:12:17;95367.53;;;19.38;73.07
41062;BME280;26812;42.662;23.352;2023-06-22T02:14:44;95360.88;;;19.16;74.13
41062;BME280;26812;42.662;23.352;2023-06-22T02:17:11;95338.28;;;19.19;74.07
41062;BME280;26812;42.662;23.352;2023-06-22T02:19:38;95344.09;;;19.37;74.06
41062;BME280;26812;42.662;23.352;2023-06-22T02:22:04;95345.03;;;19.44;73.56
41062;BME280;26812;42.662;23.352;2023-06-22T02:24:30;95338.50;;;19.72;71.68
41062;BME280;26812;42.662;23.352;2023-06-22T02:26:57;95338.59;;;19.33;72.91
41062;BME280;26812;42.662;23.352;2023-06-22T02:29:23;95356.41;;;19.27;73.82
41062;BME280;26812;42.662;23.352;2023-06-22T02:31:48;95339.47;;;18.99;75.25
41062;BME280;26812;42.662;23.352;2023-06-22T02:34:14;95338.81;;;19.05;75.01
41062;BME280;26812;42.662;23.352;2023-06-22T02:36:45;95340.09;;;19.31;74.22
41062;BME280;26812;42.662;23.352;2023-06-22T02:39:18;95343.44;;;19.43;73.48
41062;BME280;26812;42.662;23.352;2023-06-22T02:41:44;95339.91;;;18.81;75.79
41062;BME280;26812;42.662;23.352;2023-06-22T02:44:09;95343.00;;;18.99;75.68
41062;BME280;26812;42.662;23.352;2023-06-22T02:46:35;95350.72;;;19.16;74.57
41062;BME280;26812;42.662;23.352;2023-06-22T02:49:01;95353.84;;;19.15;75.05
41062;BME280;26812;42.662;23.352;2023-06-22T02:51:26;95345.84;;;19.26;74.08
41062;BME280;26812;42.662;23.352;2023-06-22T02:53:52;95347.44;;;19.07;74.48
41062;BME280;26812;42.662;23.352;2023-06-22T02:56:22;95353.63;;;18.85;76.17
41062;BME280;26812;42.662;23.352;2023-06-22T02:58:53;95360.72;;;18.70;77.58
41062;BME280;26812;42.662;23.352;2023-06-22T03:01:18;95356.25;;;18.62;78.08
41062;BME280;26812;42.662;23.352;2023-06-22T03:03:49;95358.25;;;18.65;77.99
41062;BME280;26812;42.662;23.352;2023-06-22T03:06:14;95361.81;;;18.50;78.14
41062;BME280;26812;42.662;23.352;2023-06-22T03:08:40;95353.34;;;18.71;77.69
41062;BME280;26812;42.662;23.352;2023-06-22T03:11:06;95354.53;;;18.92;77.30
41062;BME280;26812;42.662;23.352;2023-06-22T03:13:33;95362.53;;;18.82;77.70
41062;BME280;26812;42.662;23.352;2023-06-22T03:15:58;95365.41;;;19.08;76.19
41062;BME280;26812;42.662;23.352;2023-06-22T03:18:24;95346.56;;;18.65;77.55
41062;BME280;26812;42.662;23.352;2023-06-22T03:20:49;95370.78;;;18.85;77.44
41062;BME280;26812;42.662;23.352;2023-06-22T03:23:14;95378.13;;;19.01;77.28
41062;BME280;26812;42.662;23.352;2023-06-22T03:25:41;95382.72;;;19.16;76.35
41062;BME280;26812;42.662;23.352;2023-06-22T03:28:06;95387.69;;;19.30;76.22
41062;BME280;26812;42.662;23.352;2023-06-22T03:30:32;95387.44;;;19.58;75.10
41062;BME280;26812;42.662;23.352;2023-06-22T03:32:57;95368.78;;;19.60;74.37
41062;BME280;26812;42.662;23.352;2023-06-22T03:35:22;95386.59;;;19.34;75.49
41062;BME280;26812;42.662;23.352;2023-06-22T03:37:48;95370.00;;;19.23;75.58
41062;BME280;26812;42.662;23.352;2023-06-22T03:40:13;95365.31;;;19.43;74.67
41062;BME280;26812;42.662;23.352;2023-06-22T03:42:39;95382.38;;;19.79;73.57
41062;BME280;26812;42.662;23.352;2023-06-22T03:45:04;95399.25;;;19.62;74.44
41062;BME280;26812;42.662;23.352;2023-06-22T03:47:30;95402.94;;;19.31;76.62
41062;BME280;26812;42.662;23.352;2023-06-22T03:49:55;95396.09;;;19.40;76.44
41062;BME280;26812;42.662;23.352;2023-06-22T03:52:24;95392.91;;;19.58;75.68
41062;BME280;26812;42.662;23.352;2023-06-22T03:54:50;95395.91;;;19.72;74.26
41062;BME280;26812;42.662;23.352;2023-06-22T03:57:15;95398.66;;;19.52;75.38
41062;BME280;26812;42.662;23.352;2023-06-22T03:59:41;95399.94;;;19.59;75.72
41062;BME280;26812;42.662;23.352;2023-06-22T04:02:06;95406.06;;;19.71;75.84
41062;BME280;26812;42.662;23.352;2023-06-22T04:04:32;95418.56;;;19.72;76.08
41062;BME280;26812;42.662;23.352;2023-06-22T04:06:58;95419.97;;;19.85;75.14
41062;BME280;26812;42.662;23.352;2023-06-22T04:09:24;95413.41;;;19.48;76.51
41062;BME280;26812;42.662;23.352;2023-06-22T04:11:49;95395.88;;;19.91;74.19
41062;BME280;26812;42.662;23.352;2023-06-22T04:14:15;95406.69;;;20.07;73.67
41062;BME280;26812;42.662;23.352;2023-06-22T04:16:40;95389.25;;;19.92;73.59
41062;BME280;26812;42.662;23.352;2023-06-22T04:19:05;95390.44;;;19.72;75.24
41062;BME280;26812;42.662;23.352;2023-06-22T04:21:31;95398.53;;;19.88;75.57
41062;BME280;26812;42.662;23.352;2023-06-22T04:23:57;95398.41;;;20.26;74.04
41062;BME280;26812;42.662;23.352;2023-06-22T04:26:22;95375.63;;;20.71;70.77
41062;BME280;26812;42.662;23.352;2023-06-22T04:28:53;95386.28;;;21.36;68.80
41062;BME280;26812;42.662;23.352;2023-06-22T04:31:21;95383.00;;;21.24;67.72
41062;BME280;26812;42.662;23.352;2023-06-22T04:33:46;95371.19;;;21.20;66.79
41062;BME280;26812;42.662;23.352;2023-06-22T04:36:12;95381.13;;;20.71;67.76
41062;BME280;26812;42.662;23.352;2023-06-22T04:38:40;95388.94;;;20.99;67.78
41062;BME280;26812;42.662;23.352;2023-06-22T04:41:05;95379.34;;;20.83;67.96
41062;BME280;26812;42.662;23.352;2023-06-22T04:43:33;95385.53;;;20.80;68.43
41062;BME280;26812;42.662;23.352;2023-06-22T04:45:58;95381.47;;;20.96;67.66
41062;BME280;26812;42.662;23.352;2023-06-22T04:48:29;95378.00;;;21.03;67.75
41062;BME280;26812;42.662;23.352;2023-06-22T04:50:57;95376.81;;;21.00;67.91
41062;BME280;26812;42.662;23.352;2023-06-22T04:53:30;95382.53;;;21.18;67.53
41062;BME280;26812;42.662;23.352;2023-06-22T04:55:56;95381.78;;;21.21;67.14
41062;BME280;26812;42.662;23.352;2023-06-22T04:58:21;95397.53;;;21.28;67.28
41062;BME280;26812;42.662;23.352;2023-06-22T05:00:47;95412.44;;;21.30;67.82
41062;BME280;26812;42.662;23.352;2023-06-22T05:03:12;95397.06;;;21.22;68.24
41062;BME280;26812;42.662;23.352;2023-06-22T05:05:38;95410.66;;;21.45;68.21
41062;BME280;26812;42.662;23.352;2023-06-22T05:08:03;95395.88;;;21.53;67.96
41062;BME280;26812;42.662;23.352;2023-06-22T05:10:32;95394.53;;;21.74;66.92
41062;BME280;26812;42.662;23.352;2023-06-22T05:12:57;95402.50;;;21.89;66.34
41062;BME280;26812;42.662;23.352;2023-06-22T05:15:23;95358.44;;;21.72;65.72
41062;BME280;26812;42.662;23.352;2023-06-22T05:17:51;95400.78;;;22.11;64.87
41062;BME280;26812;42.662;23.352;2023-06-22T05:20:17;95401.97;;;22.14;64.10
41062;BME280;26812;42.662;23.352;2023-06-22T05:22:43;95391.22;;;22.39;62.33
41062;BME280;26812;42.662;23.352;2023-06-22T05:25:10;95394.81;;;22.50;61.84
41062;BME280;26812;42.662;23.352;2023-06-22T05:27:42;95401.50;;;22.52;61.37
41062;BME280;26812;42.662;23.352;2023-06-22T05:30:09;95396.75;;;22.46;61.90
41062;BME280;26812;42.662;23.352;2023-06-22T05:32:36;95396.91;;;22.67;61.77
41062;BME280;26812;42.662;23.352;2023-06-22T05:35:02;95410.94;;;22.58;62.01
41062;BME280;26812;42.662;23.352;2023-06-22T05:37:28;95416.03;;;22.56;62.16
41062;BME280;26812;42.662;23.352;2023-06-22T05:39:54;95421.09;;;22.51;62.53
41062;BME280;26812;42.662;23.352;2023-06-22T05:42:20;95427.06;;;22.63;62.62
41062;BME280;26812;42.662;23.352;2023-06-22T05:44:46;95424.78;;;22.69;62.64
41062;BME280;26812;42.662;23.352;2023-06-22T05:47:12;95432.47;;;23.04;61.51
41062;BME280;26812;42.662;23.352;2023-06-22T05:49:38;95431.75;;;23.18;60.03
41062;BME280;26812;42.662;23.352;2023-06-22T05:52:03;95445.59;;;23.36;59.74
41062;BME280;26812;42.662;23.352;2023-06-22T05:54:29;95433.41;;;23.33;60.04
41062;BME280;26812;42.662;23.352;2023-06-22T05:56:55;95435.81;;;23.42;59.70
41062;BME280;26812;42.662;23.352;2023-06-22T05:59:20;95428.53;;;22.98;61.02
41062;BME280;26812;42.662;23.352;2023-06-22T06:01:45;95438.44;;;23.17;59.82
41062;BME280;26812;42.662;23.352;2023-06-22T06:04:16;95427.59;;;22.80;60.63
41062;BME280;26812;42.662;23.352;2023-06-22T06:06:41;95421.53;;;22.56;60.92
41062;BME280;26812;42.662;23.352;2023-06-22T06:09:06;95421.81;;;22.41;61.68
41062;BME280;26812;42.662;23.352;2023-06-22T06:11:33;95420.13;;;22.77;61.33
41062;BME280;26812;42.662;23.352;2023-06-22T06:13:58;95411.44;;;22.71;61.72
41062;BME280;26812;42.662;23.352;2023-06-22T06:16:24;95415.75;;;22.69;62.32
41062;BME280;26812;42.662;23.352;2023-06-22T06:18:49;95427.66;;;22.87;62.07
41062;BME280;26812;42.662;23.352;2023-06-22T06:21:19;95420.78;;;23.21;61.96
41062;BME280;26812;42.662;23.352;2023-06-22T06:23:45;95410.34;;;23.56;59.93
41062;BME280;26812;42.662;23.352;2023-06-22T06:26:10;95415.50;;;23.75;60.10
41062;BME280;26812;42.662;23.352;2023-06-22T06:28:36;95410.84;;;23.97;59.77
41062;BME280;26812;42.662;23.352;2023-06-22T06:31:01;95422.69;;;24.22;59.56
41062;BME280;26812;42.662;23.352;2023-06-22T06:33:27;95418.38;;;24.28;57.46
41062;BME280;26812;42.662;23.352;2023-06-22T06:35:52;95416.41;;;24.61;58.33
41062;BME280;26812;42.662;23.352;2023-06-22T06:38:18;95409.28;;;24.95;56.12
41062;BME280;26812;42.662;23.352;2023-06-22T06:40:43;95382.94;;;24.76;55.33
41062;BME280;26812;42.662;23.352;2023-06-22T06:43:10;95410.06;;;25.03;54.20
41062;BME280;26812;42.662;23.352;2023-06-22T06:45:35;95395.88;;;24.97;54.41
41062;BME280;26812;42.662;23.352;2023-06-22T06:48:01;95408.47;;;25.16;54.41
41062;BME280;26812;42.662;23.352;2023-06-22T06:50:26;95398.53;;;25.36;53.60
41062;BME280;26812;42.662;23.352;2023-06-22T06:52:51;95400.53;;;25.29;53.98
41062;BME280;26812;42.662;23.352;2023-06-22T06:55:17;95393.41;;;25.42;53.82
41062;BME280;26812;42.662;23.352;2023-06-22T06:57:44;95391.84;;;25.37;53.41
41062;BME280;26812;42.662;23.352;2023-06-22T07:00:13;95389.03;;;25.48;53.21
41062;BME280;26812;42.662;23.352;2023-06-22T07:02:39;95402.72;;;25.80;51.80
41062;BME280;26812;42.662;23.352;2023-06-22T07:05:05;95391.28;;;25.78;53.18
41062;BME280;26812;42.662;23.352;2023-06-22T07:07:31;95382.75;;;25.44;53.38
41062;BME280;26812;42.662;23.352;2023-06-22T07:09:57;95395.88;;;25.04;55.31
41062;BME280;26812;42.662;23.352;2023-06-22T07:12:22;95402.97;;;25.09;54.53
41062;BME280;26812;42.662;23.352;2023-06-22T07:14:48;95395.09;;;25.15;54.88
41062;BME280;26812;42.662;23.352;2023-06-22T07:17:13;95378.81;;;25.45;54.28
41062;BME280;26812;42.662;23.352;2023-06-22T07:19:39;95392.47;;;25.77;54.21
41062;BME280;26812;42.662;23.352;2023-06-22T07:22:04;95385.00;;;26.29;52.34
41062;BME280;26812;42.662;23.352;2023-06-22T07:24:30;95395.22;;;26.40;51.97
41062;BME280;26812;42.662;23.352;2023-06-22T07:26:55;95388.06;;;26.46;50.53
41062;BME280;26812;42.662;23.352;2023-06-22T07:29:22;95400.22;;;26.55;50.09
41062;BME280;26812;42.662;23.352;2023-06-22T07:31:49;95403.72;;;26.59;49.36
41062;BME280;26812;42.662;23.352;2023-06-22T07:34:15;95397.50;;;26.52;50.55
41062;BME280;26812;42.662;23.352;2023-06-22T07:36:40;95393.53;;;26.53;50.96
41062;BME280;26812;42.662;23.352;2023-06-22T07:39:06;95385.16;;;26.60;50.27
41062;BME280;26812;42.662;23.352;2023-06-22T07:41:32;95402.66;;;26.91;49.74
41062;BME280;26812;42.662;23.352;2023-06-22T07:43:58;95391.16;;;26.96;49.33
41062;BME280;26812;42.662;23.352;2023-06-22T07:46:23;95404.06;;;27.10;49.83
41062;BME280;26812;42.662;23.352;2023-06-22T07:48:49;95370.22;;;26.99;49.39
41062;BME280;26812;42.662;23.352;2023-06-22T07:51:14;95399.13;;;27.28;49.87
41062;BME280;26812;42.662;23.352;2023-06-22T07:53:41;95373.69;;;27.06;48.17
41062;BME280;26812;42.662;23.352;2023-06-22T07:56:10;95392.69;;;27.38;49.38
41062;BME280;26812;42.662;23.352;2023-06-22T07:58:35;95391.16;;;27.68;47.83
41062;BME280;26812;42.662;23.352;2023-06-22T08:01:01;95386.81;;;27.67;47.30
41062;BME280;26812;42.662;23.352;2023-06-22T08:03:27;95392.47;;;27.56;47.09
41062;BME280;26812;42.662;23.352;2023-06-22T08:05:52;95388.03;;;27.66;46.61
41062;BME280;26812;42.662;23.352;2023-06-22T08:08:18;95373.25;;;27.76;45.59
41062;BME280;26812;42.662;23.352;2023-06-22T08:10:43;95372.84;;;27.43;47.25
41062;BME280;26812;42.662;23.352;2023-06-22T08:13:10;95379.00;;;27.58;46.82
41062;BME280;26812;42.662;23.352;2023-06-22T08:15:35;95375.81;;;27.90;45.79
41062;BME280;26812;42.662;23.352;2023-06-22T08:18:00;95363.78;;;27.73;47.62
41062;BME280;26812;42.662;23.352;2023-06-22T08:20:26;95360.81;;;28.14;45.55
41062;BME280;26812;42.662;23.352;2023-06-22T08:22:53;95346.34;;;28.30;45.68
41062;BME280;26812;42.662;23.352;2023-06-22T08:25:19;95351.09;;;28.30;44.78
41062;BME280;26812;42.662;23.352;2023-06-22T08:27:46;95370.22;;;28.48;43.25
41062;BME280;26812;42.662;23.352;2023-06-22T08:30:13;95358.88;;;28.38;44.01
41062;BME280;26812;42.662;23.352;2023-06-22T08:32:38;95364.63;;;28.51;44.38
41062;BME280;26812;42.662;23.352;2023-06-22T08:35:04;95350.75;;;28.51;42.62
41062;BME280;26812;42.662;23.352;2023-06-22T08:37:31;95358.59;;;28.56;44.25
41062;BME280;26812;42.662;23.352;2023-06-22T08:40:01;95366.69;;;28.20;44.97
41062;BME280;26812;42.662;23.352;2023-06-22T08:42:30;95354.06;;;28.15;45.19
41062;BME280;26812;42.662;23.352;2023-06-22T08:44:55;95354.75;;;28.23;46.39
41062;BME280;26812;42.662;23.352;2023-06-22T08:47:21;95351.59;;;28.25;45.96
41062;BME280;26812;42.662;23.352;2023-06-22T08:49:48;95359.78;;;28.32;45.63
41062;BME280;26812;42.662;23.352;2023-06-22T08:52:13;95376.34;;;28.35;45.34
41062;BME280;26812;42.662;23.352;2023-06-22T08:54:39;95362.69;;;28.21;46.13
41062;BME280;26812;42.662;23.352;2023-06-22T08:57:04;95355.09;;;28.29;45.42
41062;BME280;26812;42.662;23.352;2023-06-22T08:59:30;95364.47;;;28.35;45.22
41062;BME280;26812;42.662;23.352;2023-06-22T09:01:55;95364.78;;;28.64;45.70
41062;BME280;26812;42.662;23.352;2023-06-22T09:04:21;95354.22;;;29.02;43.55
41062;BME280;26812;42.662;23.352;2023-06-22T09:06:47;95345.03;;;28.85;42.55
41062;BME280;26812;42.662;23.352;2023-06-22T09:09:13;95340.13;;;28.69;43.02
41062;BME280;26812;42.662;23.352;2023-06-22T09:11:40;95331.94;;;29.05;43.29
41062;BME280;26812;42.662;23.352;2023-06-22T09:14:05;95343.47;;;29.24;42.17
41062;BME280;26812;42.662;23.352;2023-06-22T09:16:31;95350.00;;;29.33;41.85
41062;BME280;26812;42.662;23.352;2023-06-22T09:18:57;95338.16;;;29.13;42.25
41062;BME280;26812;42.662;23.352;2023-06-22T09:21:23;95350.88;;;29.30;41.15
41062;BME280;26812;42.662;23.352;2023-06-22T09:23:48;95322.25;;;29.33;41.79
41062;BME280;26812;42.662;23.352;2023-06-22T09:26:17;95349.00;;;29.63;42.31
41062;BME280;26812;42.662;23.352;2023-06-22T09:28:49;95342.41;;;29.57;40.82
41062;BME280;26812;42.662;23.352;2023-06-22T09:31:15;95344.66;;;29.82;40.53
41062;BME280;26812;42.662;23.352;2023-06-22T09:33:42;95358.78;;;29.72;40.03
41062;BME280;26812;42.662;23.352;2023-06-22T09:36:07;95353.94;;;29.56;38.90
41062;BME280;26812;42.662;23.352;2023-06-22T09:38:36;95341.19;;;29.38;40.69
41062;BME280;26812;42.662;23.352;2023-06-22T09:41:01;95348.38;;;29.76;40.18
41062;BME280;26812;42.662;23.352;2023-06-22T09:43:27;95348.44;;;29.72;40.97
41062;BME280;26812;42.662;23.352;2023-06-22T09:45:52;95355.66;;;29.86;41.12
41062;BME280;26812;42.662;23.352;2023-06-22T09:48:18;95347.94;;;29.93;41.29
41062;BME280;26812;42.662;23.352;2023-06-22T09:50:43;95347.66;;;30.08;39.78
41062;BME280;26812;42.662;23.352;2023-06-22T09:53:09;95348.59;;;29.65;41.38
41062;BME280;26812;42.662;23.352;2023-06-22T09:55:34;95348.66;;;29.97;40.49
41062;BME280;26812;42.662;23.352;2023-06-22T09:58:00;95334.59;;;29.88;40.41
41062;BME280;26812;42.662;23.352;2023-06-22T10:00:25;95336.41;;;29.79;40.60
41062;BME280;26812;42.662;23.352;2023-06-22T10:02:52;95336.66;;;30.04;40.51
41062;BME280;26812;42.662;23.352;2023-06-22T10:05:17;95335.34;;;30.09;41.55
41062;BME280;26812;42.662;23.352;2023-06-22T10:07:43;95331.78;;;30.08;40.56
41062;BME280;26812;42.662;23.352;2023-06-22T10:10:10;95331.34;;;30.26;39.54
41062;BME280;26812;42.662;23.352;2023-06-22T10:12:36;95304.09;;;30.05;41.20
41062;BME280;26812;42.662;23.352;2023-06-22T10:15:02;95327.53;;;30.36;40.78
41062;BME280;26812;42.662;23.352;2023-06-22T10:17:27;95323.88;;;30.39;39.09
41062;BME280;26812;42.662;23.352;2023-06-22T10:19:53;95312.09;;;29.99;39.28
41062;BME280;26812;42.662;23.352;2023-06-22T10:22:18;95319.47;;;29.89;40.60
41062;BME280;26812;42.662;23.352;2023-06-22T10:24:44;95323.00;;;30.10;39.97
41062;BME280;26812;42.662;23.352;2023-06-22T10:27:12;95327.69;;;30.29;40.96
41062;BME280;26812;42.662;23.352;2023-06-22T10:29:39;95323.53;;;30.37;37.58
41062;BME280;26812;42.662;23.352;2023-06-22T10:32:04;95320.84;;;30.17;40.62
41062;BME280;26812;42.662;23.352;2023-06-22T10:34:30;95321.00;;;30.26;39.91
41062;BME280;26812;42.662;23.352;2023-06-22T10:36:55;95309.34;;;30.48;40.17
41062;BME280;26812;42.662;23.352;2023-06-22T10:39:21;95317.19;;;30.69;39.13
41062;BME280;26812;42.662;23.352;2023-06-22T10:41:46;95309.41;;;30.93;37.54
41062;BME280;26812;42.662;23.352;2023-06-22T10:44:11;95298.88;;;30.84;36.76
41062;BME280;26812;42.662;23.352;2023-06-22T10:46:37;95299.47;;;30.47;36.83
41062;BME280;26812;42.662;23.352;2023-06-22T10:49:03;95306.66;;;30.28;36.53
41062;BME280;26812;42.662;23.352;2023-06-22T10:51:28;95292.19;;;30.37;36.94
41062;BME280;26812;42.662;23.352;2023-06-22T10:53:54;95300.50;;;30.69;37.40
41062;BME280;26812;42.662;23.352;2023-06-22T10:56:19;95305.84;;;30.93;37.65
41062;BME280;26812;42.662;23.352;2023-06-22T10:58:45;95307.28;;;30.97;37.32
41062;BME280;26812;42.662;23.352;2023-06-22T11:01:11;95290.19;;;30.82;35.45
41062;BME280;26812;42.662;23.352;2023-06-22T11:03:36;95298.25;;;31.22;35.04
41062;BME280;26812;42.662;23.352;2023-06-22T11:06:02;95300.63;;;30.78;35.39
41062;BME280;26812;42.662;23.352;2023-06-22T11:08:27;95298.28;;;30.77;35.75
41062;BME280;26812;42.662;23.352;2023-06-22T11:10:52;95284.34;;;30.93;35.96
41062;BME280;26812;42.662;23.352;2023-06-22T11:13:18;95303.41;;;30.78;35.91
41062;BME280;26812;42.662;23.352;2023-06-22T11:15:43;95288.28;;;31.08;35.37
41062;BME280;26812;42.662;23.352;2023-06-22T11:18:09;95272.88;;;31.20;35.42
41062;BME280;26812;42.662;23.352;2023-06-22T11:20:34;95286.88;;;31.71;34.83
41062;BME280;26812;42.662;23.352;2023-06-22T11:23:04;95285.94;;;31.48;34.61
41062;BME280;26812;42.662;23.352;2023-06-22T11:25:30;95254.53;;;31.48;35.31
41062;BME280;26812;42.662;23.352;2023-06-22T11:27:55;95264.22;;;31.31;34.35
41062;BME280;26812;42.662;23.352;2023-06-22T11:30:21;95272.59;;;31.02;34.82
41062;BME280;26812;42.662;23.352;2023-06-22T11:32:46;95271.47;;;30.70;34.54
41062;BME280;26812;42.662;23.352;2023-06-22T11:35:11;95270.84;;;30.92;35.42
41062;BME280;26812;42.662;23.352;2023-06-22T11:37:37;95267.91;;;31.53;34.74
41062;BME280;26812;42.662;23.352;2023-06-22T11:40:02;95273.94;;;31.64;34.39
41062;BME280;26812;42.662;23.352;2023-06-22T11:42:30;95245.19;;;31.00;34.72
41062;BME280;26812;42.662;23.352;2023-06-22T11:44:55;95266.09;;;30.92;35.86
41062;BME280;26812;42.662;23.352;2023-06-22T11:47:21;95253.13;;;30.73;35.34
41062;BME280;26812;42.662;23.352;2023-06-22T11:49:46;95242.31;;;30.62;35.54
41062;BME280;26812;42.662;23.352;2023-06-22T11:52:12;95258.94;;;30.91;36.37
41062;BME280;26812;42.662;23.352;2023-06-22T11:54:37;95255.72;;;31.22;36.08
41062;BME280;26812;42.662;23.352;2023-06-22T11:57:04;95245.88;;;31.71;36.68
41062;BME280;26812;42.662;23.352;2023-06-22T11:59:29;95249.19;;;31.41;36.94
41062;BME280;26812;42.662;23.352;2023-06-22T12:01:54;95244.25;;;31.19;37.23
41062;BME280;26812;42.662;23.352;2023-06-22T12:04:20;95246.38;;;30.86;36.94
41062;BME280;26812;42.662;23.352;2023-06-22T12:06:46;95255.56;;;31.00;36.41
41062;BME280;26812;42.662;23.352;2023-06-22T12:09:12;95240.81;;;30.86;36.71
41062;BME280;26812;42.662;23.352;2023-06-22T12:11:38;95240.03;;;30.86;36.29
41062;BME280;26812;42.662;23.352;2023-06-22T12:14:04;95244.03;;;30.85;36.84
41062;BME280;26812;42.662;23.352;2023-06-22T12:16:29;95261.22;;;30.67;36.35
41062;BME280;26812;42.662;23.352;2023-06-22T12:18:55;95243.78;;;30.79;36.58
41062;BME280;26812;42.662;23.352;2023-06-22T12:21:20;95266.34;;;30.52;36.93
41062;BME280;26812;42.662;23.352;2023-06-22T12:23:45;95265.84;;;29.92;38.76
41062;BME280;26812;42.662;23.352;2023-06-22T12:26:11;95285.69;;;29.38;39.55
41062;BME280;26812;42.662;23.352;2023-06-22T12:28:36;95272.44;;;29.10;39.74
41062;BME280;26812;42.662;23.352;2023-06-22T12:31:02;95294.19;;;28.49;41.42
41062;BME280;26812;42.662;23.352;2023-06-22T12:33:27;95283.16;;;28.22;42.38
41062;BME280;26812;42.662;23.352;2023-06-22T12:35:53;95302.16;;;28.66;41.87
41062;BME280;26812;42.662;23.352;2023-06-22T12:38:18;95306.00;;;28.53;43.25
41062;BME280;26812;42.662;23.352;2023-06-22T12:40:43;95312.81;;;28.48;44.12
41062;BME280;26812;42.662;23.352;2023-06-22T12:43:09;95318.47;;;28.14;44.86
41062;BME280;26812;42.662;23.352;2023-06-22T12:45:34;95307.16;;;28.05;47.32
41062;BME280;26812;42.662;23.352;2023-06-22T12:48:00;95315.34;;;27.89;47.56
41062;BME280;26812;42.662;23.352;2023-06-22T12:50:25;95322.50;;;27.86;47.89
41062;BME280;26812;42.662;23.352;2023-06-22T12:52:51;95349.72;;;27.61;48.85
41062;BME280;26812;42.662;23.352;2023-06-22T12:55:16;95352.47;;;27.61;48.99